sensor_id;sensor_type;location;lat;lon;timestamp;temperature;humidity
4910;DHT22;2470;49.868;8.660;2023-03-13T00:00:53;11.10;99.90
4910;DHT22;2470;49.868;8.660;2023-03-13T00:03:19;11.00;99.90
4910;DHT22;2470;49.868;8.660;2023-03-13T00:05:45;11.00;99.90
4910;DHT22;2470;49.868;8.660;2023-03-13T00:08:10;11.10;99.90
4910;DHT22;2470;49.868;8.660;2023-03-13T00:10:37;11.10;99.90
4910;DHT22;2470;49.868;8.660;2023-03-13T00:13:03;11.10;99.90
4910;DHT22;2470;49.868;8.660;2023-03-13T00:15:29;11.00;99.90
4910;DHT22;2470;49.868;8.660;2023-03-13T00:17:54;11.10;99.90
4910;DHT22;2470;49.868;8.660;2023-03-13T00:20:20;11.10;99.90
4910;DHT22;2470;49.868;8.660;2023-03-13T00:22:47;11.10;99.90
4910;DHT22;2470;49.868;8.660;2023-03-13T00:25:13;11.10;99.90
4910;DHT22;2470;49.868;8.660;2023-03-13T00:27:39;11.10;99.90
4910;DHT22;2470;49.868;8.660;2023-03-13T00:30:06;11.10;99.90
4910;DHT22;2470;49.868;8.660;2023-03-13T00:32:32;11.10;99.90
4910;DHT22;2470;49.868;8.660;2023-03-13T00:34:58;11.10;99.90
4910;DHT22;2470;49.868;8.660;2023-03-13T00:37:23;11.10;99.90
4910;DHT22;2470;49.868;8.660;2023-03-13T00:39:48;11.10;99.90
4910;DHT22;2470;49.868;8.660;2023-03-13T00:42:14;11.10;99.90
4910;DHT22;2470;49.868;8.660;2023-03-13T00:44:39;11.10;99.90
4910;DHT22;2470;49.868;8.660;2023-03-13T00:47:05;11.20;99.90
4910;DHT22;2470;49.868;8.660;2023-03-13T00:49:31;11.20;99.90
4910;DHT22;2470;49.868;8.660;2023-03-13T00:51:57;11.30;99.90
4910;DHT22;2470;49.868;8.660;2023-03-13T00:54:23;11.30;99.90
4910;DHT22;2470;49.868;8.660;2023-03-13T00:56:48;11.30;99.90
4910;DHT22;2470;49.868;8.660;2023-03-13T00:59:14;11.30;99.90
4910;DHT22;2470;49.868;8.660;2023-03-13T01:01:40;11.30;99.90
4910;DHT22;2470;49.868;8.660;2023-03-13T01:04:08;11.40;99.90
4910;DHT22;2470;49.868;8.660;2023-03-13T01:06:36;11.40;99.90
4910;DHT22;2470;49.868;8.660;2023-03-13T01:09:04;11.30;99.90
4910;DHT22;2470;49.868;8.660;2023-03-13T01:11:31;11.30;99.90
4910;DHT22;2470;49.868;8.660;2023-03-13T01:14:01;11.30;99.90
4910;DHT22;2470;49.868;8.660;2023-03-13T01:16:29;11.30;99.90
4910;DHT22;2470;49.868;8.660;2023-03-13T01:18:58;11.40;99.90
4910;DHT22;2470;49.868;8.660;2023-03-13T01:21:24;11.40;99.90
4910;DHT22;2470;49.868;8.660;2023-03-13T01:23:51;11.40;99.90
4910;DHT22;2470;49.868;8.660;2023-03-13T01:26:17;11.50;99.90
4910;DHT22;2470;49.868;8.660;2023-03-13T01:28:43;11.50;99.90
4910;DHT22;2470;49.868;8.660;2023-03-13T01:31:17;11.50;99.90
4910;DHT22;2470;49.868;8.660;2023-03-13T01:33:44;11.50;99.90
4910;DHT22;2470;49.868;8.660;2023-03-13T01:36:10;11.50;99.90
4910;DHT22;2470;49.868;8.660;2023-03-13T01:38:37;11.50;99.90
4910;DHT22;2470;49.868;8.660;2023-03-13T01:41:03;11.50;99.90
4910;DHT22;2470;49.868;8.660;2023-03-13T01:43:31;11.50;99.90
4910;DHT22;2470;49.868;8.660;2023-03-13T01:45:58;11.50;99.90
4910;DHT22;2470;49.868;8.660;2023-03-13T01:48:34;11.50;99.90
4910;DHT22;2470;49.868;8.660;2023-03-13T01:51:06;11.50;99.90
4910;DHT22;2470;49.868;8.660;2023-03-13T01:53:34;11.50;99.90
4910;DHT22;2470;49.868;8.660;2023-03-13T01:56:04;11.60;99.90
4910;DHT22;2470;49.868;8.660;2023-03-13T01:58:31;11.60;99.90
4910;DHT22;2470;49.868;8.660;2023-03-13T02:00:57;11.60;99.90
4910;DHT22;2470;49.868;8.660;2023-03-13T02:03:23;11.60;99.90
4910;DHT22;2470;49.868;8.660;2023-03-13T02:05:49;11.70;99.90
4910;DHT22;2470;49.868;8.660;2023-03-13T02:08:37;11.70;99.90
4910;DHT22;2470;49.868;8.660;2023-03-13T02:12:06;11.60;99.90
4910;DHT22;2470;49.868;8.660;2023-03-13T02:14:12;11.70;99.90
4910;DHT22;2470;49.868;8.660;2023-03-13T02:16:39;11.70;99.90
4910;DHT22;2470;49.868;8.660;2023-03-13T02:19:18;11.70;99.90
4910;DHT22;2470;49.868;8.660;2023-03-13T02:21:54;11.70;99.90
4910;DHT22;2470;49.868;8.660;2023-03-13T02:24:39;11.70;99.90
4910;DHT22;2470;49.868;8.660;2023-03-13T02:27:08;11.70;99.90
4910;DHT22;2470;49.868;8.660;2023-03-13T02:29:33;11.70;99.90
4910;DHT22;2470;49.868;8.660;2023-03-13T02:31:59;11.70;99.90
4910;DHT22;2470;49.868;8.660;2023-03-13T02:34:28;11.70;99.90
4910;DHT22;2470;49.868;8.660;2023-03-13T02:36:57;11.70;99.90
4910;DHT22;2470;49.868;8.660;2023-03-13T02:39:24;11.70;99.90
4910;DHT22;2470;49.868;8.660;2023-03-13T02:41:51;11.70;99.90
4910;DHT22;2470;49.868;8.660;2023-03-13T02:44:17;11.70;99.90
4910;DHT22;2470;49.868;8.660;2023-03-13T02:46:48;11.70;99.90
4910;DHT22;2470;49.868;8.660;2023-03-13T02:49:32;11.80;99.90
4910;DHT22;2470;49.868;8.660;2023-03-13T02:52:28;11.80;99.90
4910;DHT22;2470;49.868;8.660;2023-03-13T02:55:01;11.80;99.90
4910;DHT22;2470;49.868;8.660;2023-03-13T02:57:28;11.70;99.90
4910;DHT22;2470;49.868;8.660;2023-03-13T02:59:53;11.60;99.90
4910;DHT22;2470;49.868;8.660;2023-03-13T03:02:19;11.60;99.90
4910;DHT22;2470;49.868;8.660;2023-03-13T03:04:44;11.60;99.90
4910;DHT22;2470;49.868;8.660;2023-03-13T03:07:10;11.60;99.90
4910;DHT22;2470;49.868;8.660;2023-03-13T03:09:35;11.60;99.90
4910;DHT22;2470;49.868;8.660;2023-03-13T03:12:01;11.50;99.90
4910;DHT22;2470;49.868;8.660;2023-03-13T03:14:26;11.50;99.90
4910;DHT22;2470;49.868;8.660;2023-03-13T03:16:52;11.50;99.90
4910;DHT22;2470;49.868;8.660;2023-03-13T03:19:17;11.50;99.90
4910;DHT22;2470;49.868;8.660;2023-03-13T03:21:43;11.40;99.90
4910;DHT22;2470;49.868;8.660;2023-03-13T03:24:09;11.40;99.90
4910;DHT22;2470;49.868;8.660;2023-03-13T03:26:35;11.40;99.90
4910;DHT22;2470;49.868;8.660;2023-03-13T03:29:00;11.40;99.90
4910;DHT22;2470;49.868;8.660;2023-03-13T03:31:26;11.40;99.90
4910;DHT22;2470;49.868;8.660;2023-03-13T03:33:51;11.40;99.90
4910;DHT22;2470;49.868;8.660;2023-03-13T03:36:20;11.40;99.90
4910;DHT22;2470;49.868;8.660;2023-03-13T03:38:46;11.40;99.90
4910;DHT22;2470;49.868;8.660;2023-03-13T03:41:12;11.40;99.90
4910;DHT22;2470;49.868;8.660;2023-03-13T03:43:41;11.40;99.90
4910;DHT22;2470;49.868;8.660;2023-03-13T03:46:07;11.40;99.90
4910;DHT22;2470;49.868;8.660;2023-03-13T03:48:33;11.40;99.90
4910;DHT22;2470;49.868;8.660;2023-03-13T03:51:00;11.30;99.90
4910;DHT22;2470;49.868;8.660;2023-03-13T03:53:25;11.30;99.90
4910;DHT22;2470;49.868;8.660;2023-03-13T03:55:52;11.20;99.90
4910;DHT22;2470;49.868;8.660;2023-03-13T03:58:18;11.10;99.90
4910;DHT22;2470;49.868;8.660;2023-03-13T04:00:44;11.00;99.90
4910;DHT22;2470;49.868;8.660;2023-03-13T04:03:10;11.00;99.90
4910;DHT22;2470;49.868;8.660;2023-03-13T04:05:36;10.90;99.90
4910;DHT22;2470;49.868;8.660;2023-03-13T04:08:02;10.90;99.90
4910;DHT22;2470;49.868;8.660;2023-03-13T04:10:27;10.90;99.90
4910;DHT22;2470;49.868;8.660;2023-03-13T04:12:53;10.90;99.90
4910;DHT22;2470;49.868;8.660;2023-03-13T04:15:18;10.80;99.90
4910;DHT22;2470;49.868;8.660;2023-03-13T04:17:44;10.80;99.90
4910;DHT22;2470;49.868;8.660;2023-03-13T04:20:10;10.70;99.90
4910;DHT22;2470;49.868;8.660;2023-03-13T04:22:38;10.80;99.90
4910;DHT22;2470;49.868;8.660;2023-03-13T04:25:03;10.70;99.90
4910;DHT22;2470;49.868;8.660;2023-03-13T04:27:29;10.70;99.90
4910;DHT22;2470;49.868;8.660;2023-03-13T04:29:54;10.80;99.90
4910;DHT22;2470;49.868;8.660;2023-03-13T04:32:20;10.70;99.90
4910;DHT22;2470;49.868;8.660;2023-03-13T04:34:45;10.70;99.90
4910;DHT22;2470;49.868;8.660;2023-03-13T04:37:11;10.70;99.90
4910;DHT22;2470;49.868;8.660;2023-03-13T04:39:36;10.70;99.90
4910;DHT22;2470;49.868;8.660;2023-03-13T04:42:02;10.70;99.90
4910;DHT22;2470;49.868;8.660;2023-03-13T04:44:28;10.70;99.90
4910;DHT22;2470;49.868;8.660;2023-03-13T04:46:53;10.70;99.90
4910;DHT22;2470;49.868;8.660;2023-03-13T04:49:19;10.80;99.90
4910;DHT22;2470;49.868;8.660;2023-03-13T04:51:44;10.80;99.90
4910;DHT22;2470;49.868;8.660;2023-03-13T04:54:11;10.70;99.90
4910;DHT22;2470;49.868;8.660;2023-03-13T04:56:36;10.80;99.90
4910;DHT22;2470;49.868;8.660;2023-03-13T04:59:02;10.80;99.90
4910;DHT22;2470;49.868;8.660;2023-03-13T05:01:28;10.80;99.90
4910;DHT22;2470;49.868;8.660;2023-03-13T05:03:54;10.90;99.90
4910;DHT22;2470;49.868;8.660;2023-03-13T05:06:19;10.80;99.90
4910;DHT22;2470;49.868;8.660;2023-03-13T05:08:45;10.90;99.90
4910;DHT22;2470;49.868;8.660;2023-03-13T05:11:10;10.90;99.90
4910;DHT22;2470;49.868;8.660;2023-03-13T05:13:36;10.90;99.90
4910;DHT22;2470;49.868;8.660;2023-03-13T05:16:02;10.90;99.90
4910;DHT22;2470;49.868;8.660;2023-03-13T05:18:27;10.90;99.90
4910;DHT22;2470;49.868;8.660;2023-03-13T05:20:53;10.90;99.90
4910;DHT22;2470;49.868;8.660;2023-03-13T05:23:18;10.90;99.90
4910;DHT22;2470;49.868;8.660;2023-03-13T05:25:44;11.00;99.90
4910;DHT22;2470;49.868;8.660;2023-03-13T05:28:10;11.00;99.90
4910;DHT22;2470;49.868;8.660;2023-03-13T05:30:35;11.00;99.90
4910;DHT22;2470;49.868;8.660;2023-03-13T05:33:01;11.00;99.90
4910;DHT22;2470;49.868;8.660;2023-03-13T05:35:26;11.00;99.90
4910;DHT22;2470;49.868;8.660;2023-03-13T05:37:52;11.10;99.90
4910;DHT22;2470;49.868;8.660;2023-03-13T05:40:17;11.10;99.90
4910;DHT22;2470;49.868;8.660;2023-03-13T05:42:44;11.10;99.90
4910;DHT22;2470;49.868;8.660;2023-03-13T05:45:10;11.10;99.90
4910;DHT22;2470;49.868;8.660;2023-03-13T05:47:36;11.10;99.90
4910;DHT22;2470;49.868;8.660;2023-03-13T05:50:03;11.10;99.90
4910;DHT22;2470;49.868;8.660;2023-03-13T05:52:29;11.20;99.90
4910;DHT22;2470;49.868;8.660;2023-03-13T05:54:54;11.20;99.90
4910;DHT22;2470;49.868;8.660;2023-03-13T05:57:20;11.20;99.90
4910;DHT22;2470;49.868;8.660;2023-03-13T05:59:45;11.30;99.90
4910;DHT22;2470;49.868;8.660;2023-03-13T06:02:11;11.30;99.90
4910;DHT22;2470;49.868;8.660;2023-03-13T06:04:36;11.30;99.90
4910;DHT22;2470;49.868;8.660;2023-03-13T06:07:02;11.30;99.90
4910;DHT22;2470;49.868;8.660;2023-03-13T06:09:27;11.30;99.90
4910;DHT22;2470;49.868;8.660;2023-03-13T06:11:53;11.40;99.90
4910;DHT22;2470;49.868;8.660;2023-03-13T06:14:19;11.40;99.90
4910;DHT22;2470;49.868;8.660;2023-03-13T06:16:45;11.40;99.90
4910;DHT22;2470;49.868;8.660;2023-03-13T06:19:10;11.40;99.90
4910;DHT22;2470;49.868;8.660;2023-03-13T06:21:36;11.40;99.90
4910;DHT22;2470;49.868;8.660;2023-03-13T06:24:02;11.50;99.90
4910;DHT22;2470;49.868;8.660;2023-03-13T06:26:27;11.50;99.90
4910;DHT22;2470;49.868;8.660;2023-03-13T06:28:53;11.50;99.90
4910;DHT22;2470;49.868;8.660;2023-03-13T06:31:19;11.50;99.90
4910;DHT22;2470;49.868;8.660;2023-03-13T06:33:44;11.60;99.90
4910;DHT22;2470;49.868;8.660;2023-03-13T06:36:10;11.60;99.90
4910;DHT22;2470;49.868;8.660;2023-03-13T06:38:35;11.70;99.90
4910;DHT22;2470;49.868;8.660;2023-03-13T06:41:01;11.70;99.90
4910;DHT22;2470;49.868;8.660;2023-03-13T06:43:27;11.60;99.90
4910;DHT22;2470;49.868;8.660;2023-03-13T06:45:52;11.70;99.90
4910;DHT22;2470;49.868;8.660;2023-03-13T06:48:18;11.80;99.90
4910;DHT22;2470;49.868;8.660;2023-03-13T06:50:43;12.00;99.90
4910;DHT22;2470;49.868;8.660;2023-03-13T06:53:19;11.80;99.90
4910;DHT22;2470;49.868;8.660;2023-03-13T06:55:45;11.80;99.90
4910;DHT22;2470;49.868;8.660;2023-03-13T06:58:11;11.80;99.90
4910;DHT22;2470;49.868;8.660;2023-03-13T07:00:37;11.80;99.90
4910;DHT22;2470;49.868;8.660;2023-03-13T07:03:05;11.90;99.90
4910;DHT22;2470;49.868;8.660;2023-03-13T07:05:31;11.80;99.90
4910;DHT22;2470;49.868;8.660;2023-03-13T07:07:56;11.90;99.90
4910;DHT22;2470;49.868;8.660;2023-03-13T07:10:22;11.90;99.90
4910;DHT22;2470;49.868;8.660;2023-03-13T07:12:48;12.00;99.90
4910;DHT22;2470;49.868;8.660;2023-03-13T07:15:13;12.00;99.90
4910;DHT22;2470;49.868;8.660;2023-03-13T07:17:39;12.00;99.90
4910;DHT22;2470;49.868;8.660;2023-03-13T07:20:05;12.00;99.90
4910;DHT22;2470;49.868;8.660;2023-03-13T07:22:33;12.00;99.90
4910;DHT22;2470;49.868;8.660;2023-03-13T07:24:59;12.00;99.90
4910;DHT22;2470;49.868;8.660;2023-03-13T07:27:24;12.10;99.90
4910;DHT22;2470;49.868;8.660;2023-03-13T07:29:50;12.10;99.90
4910;DHT22;2470;49.868;8.660;2023-03-13T07:32:15;12.10;99.90
4910;DHT22;2470;49.868;8.660;2023-03-13T07:34:41;12.10;99.90
4910;DHT22;2470;49.868;8.660;2023-03-13T07:37:12;12.10;99.90
4910;DHT22;2470;49.868;8.660;2023-03-13T07:39:38;12.20;99.90
4910;DHT22;2470;49.868;8.660;2023-03-13T07:42:03;12.20;99.90
4910;DHT22;2470;49.868;8.660;2023-03-13T07:44:29;12.20;99.90
4910;DHT22;2470;49.868;8.660;2023-03-13T07:46:54;12.10;99.90
4910;DHT22;2470;49.868;8.660;2023-03-13T07:49:20;12.30;99.90
4910;DHT22;2470;49.868;8.660;2023-03-13T07:51:45;12.10;99.90
4910;DHT22;2470;49.868;8.660;2023-03-13T07:54:15;12.10;99.90
4910;DHT22;2470;49.868;8.660;2023-03-13T07:56:41;12.20;99.90
4910;DHT22;2470;49.868;8.660;2023-03-13T07:59:07;12.20;99.90
4910;DHT22;2470;49.868;8.660;2023-03-13T08:01:32;12.20;99.90
4910;DHT22;2470;49.868;8.660;2023-03-13T08:03:58;12.20;99.90
4910;DHT22;2470;49.868;8.660;2023-03-13T08:06:28;12.20;99.90
4910;DHT22;2470;49.868;8.660;2023-03-13T08:08:56;12.20;99.90
4910;DHT22;2470;49.868;8.660;2023-03-13T08:11:24;12.30;99.90
4910;DHT22;2470;49.868;8.660;2023-03-13T08:13:50;12.40;99.90
4910;DHT22;2470;49.868;8.660;2023-03-13T08:16:18;12.50;99.90
4910;DHT22;2470;49.868;8.660;2023-03-13T08:18:47;12.60;99.90
4910;DHT22;2470;49.868;8.660;2023-03-13T08:21:21;12.70;99.90
4910;DHT22;2470;49.868;8.660;2023-03-13T08:23:48;12.80;99.90
4910;DHT22;2470;49.868;8.660;2023-03-13T08:26:19;12.90;99.90
4910;DHT22;2470;49.868;8.660;2023-03-13T08:28:59;13.00;99.90
4910;DHT22;2470;49.868;8.660;2023-03-13T08:31:27;13.20;99.90
4910;DHT22;2470;49.868;8.660;2023-03-13T08:33:53;13.30;99.90
4910;DHT22;2470;49.868;8.660;2023-03-13T08:36:24;13.40;99.90
4910;DHT22;2470;49.868;8.660;2023-03-13T08:38:52;13.50;99.90
4910;DHT22;2470;49.868;8.660;2023-03-13T08:41:20;13.50;99.90
4910;DHT22;2470;49.868;8.660;2023-03-13T08:43:46;13.50;99.90
4910;DHT22;2470;49.868;8.660;2023-03-13T08:46:13;13.50;99.90
4910;DHT22;2470;49.868;8.660;2023-03-13T08:48:39;13.50;99.90
4910;DHT22;2470;49.868;8.660;2023-03-13T08:51:09;13.50;99.90
4910;DHT22;2470;49.868;8.660;2023-03-13T08:53:36;13.50;99.90
4910;DHT22;2470;49.868;8.660;2023-03-13T08:56:03;13.60;99.90
4910;DHT22;2470;49.868;8.660;2023-03-13T08:58:29;13.70;99.90
4910;DHT22;2470;49.868;8.660;2023-03-13T09:01:00;13.60;99.90
4910;DHT22;2470;49.868;8.660;2023-03-13T09:03:26;13.60;99.90
4910;DHT22;2470;49.868;8.660;2023-03-13T09:05:52;13.60;99.90
4910;DHT22;2470;49.868;8.660;2023-03-13T09:08:17;13.60;99.90
4910;DHT22;2470;49.868;8.660;2023-03-13T09:10:43;13.70;99.90
4910;DHT22;2470;49.868;8.660;2023-03-13T09:13:08;13.60;99.90
4910;DHT22;2470;49.868;8.660;2023-03-13T09:15:34;13.70;99.90
4910;DHT22;2470;49.868;8.660;2023-03-13T09:17:59;13.70;99.90
4910;DHT22;2470;49.868;8.660;2023-03-13T09:20:25;13.70;99.90
4910;DHT22;2470;49.868;8.660;2023-03-13T09:22:50;13.70;99.90
4910;DHT22;2470;49.868;8.660;2023-03-13T09:25:16;13.80;99.90
4910;DHT22;2470;49.868;8.660;2023-03-13T09:27:41;13.80;99.90
4910;DHT22;2470;49.868;8.660;2023-03-13T09:30:07;13.80;99.90
4910;DHT22;2470;49.868;8.660;2023-03-13T09:32:33;13.80;99.90
4910;DHT22;2470;49.868;8.660;2023-03-13T09:34:59;13.90;99.90
4910;DHT22;2470;49.868;8.660;2023-03-13T09:37:25;14.00;99.90
4910;DHT22;2470;49.868;8.660;2023-03-13T09:39:51;14.00;99.90
4910;DHT22;2470;49.868;8.660;2023-03-13T09:44:52;14.20;99.90
4910;DHT22;2470;49.868;8.660;2023-03-13T09:47:24;14.30;99.90
4910;DHT22;2470;49.868;8.660;2023-03-13T09:50:00;14.30;99.90
4910;DHT22;2470;49.868;8.660;2023-03-13T09:52:33;14.30;99.90
4910;DHT22;2470;49.868;8.660;2023-03-13T09:55:33;14.40;99.90
4910;DHT22;2470;49.868;8.660;2023-03-13T09:58:14;14.40;99.90
4910;DHT22;2470;49.868;8.660;2023-03-13T10:00:53;14.40;99.90
4910;DHT22;2470;49.868;8.660;2023-03-13T10:03:29;14.50;99.90
4910;DHT22;2470;49.868;8.660;2023-03-13T10:06:01;14.60;99.90
4910;DHT22;2470;49.868;8.660;2023-03-13T10:08:33;14.80;99.90
4910;DHT22;2470;49.868;8.660;2023-03-13T10:11:06;14.90;99.90
4910;DHT22;2470;49.868;8.660;2023-03-13T10:13:50;15.10;99.90
4910;DHT22;2470;49.868;8.660;2023-03-13T10:16:23;15.40;99.90
4910;DHT22;2470;49.868;8.660;2023-03-13T10:18:53;15.60;99.90
4910;DHT22;2470;49.868;8.660;2023-03-13T10:21:21;15.70;99.90
4910;DHT22;2470;49.868;8.660;2023-03-13T10:26:41;15.40;99.90
4910;DHT22;2470;49.868;8.660;2023-03-13T10:29:25;15.30;99.90
4910;DHT22;2470;49.868;8.660;2023-03-13T10:31:57;15.10;99.90
4910;DHT22;2470;49.868;8.660;2023-03-13T10:37:11;15.10;99.90
4910;DHT22;2470;49.868;8.660;2023-03-13T10:39:38;15.10;99.90
4910;DHT22;2470;49.868;8.660;2023-03-13T10:42:24;15.20;99.90
4910;DHT22;2470;49.868;8.660;2023-03-13T10:44:56;15.20;99.90
4910;DHT22;2470;49.868;8.660;2023-03-13T10:47:22;15.10;99.90
4910;DHT22;2470;49.868;8.660;2023-03-13T10:49:56;15.10;99.90
4910;DHT22;2470;49.868;8.660;2023-03-13T10:52:32;15.00;99.90
4910;DHT22;2470;49.868;8.660;2023-03-13T10:55:01;15.10;99.90
4910;DHT22;2470;49.868;8.660;2023-03-13T10:57:31;15.20;99.90
4910;DHT22;2470;49.868;8.660;2023-03-13T10:59:57;15.30;99.90
4910;DHT22;2470;49.868;8.660;2023-03-13T11:02:28;15.30;99.90
4910;DHT22;2470;49.868;8.660;2023-03-13T11:04:56;15.30;99.90
4910;DHT22;2470;49.868;8.660;2023-03-13T11:07:35;15.30;99.90
4910;DHT22;2470;49.868;8.660;2023-03-13T11:10:13;15.30;99.90
4910;DHT22;2470;49.868;8.660;2023-03-13T11:12:46;15.40;99.90
4910;DHT22;2470;49.868;8.660;2023-03-13T11:15:17;15.40;99.90
4910;DHT22;2470;49.868;8.660;2023-03-13T11:17:48;15.50;99.90
4910;DHT22;2470;49.868;8.660;2023-03-13T11:20:35;15.50;99.90
4910;DHT22;2470;49.868;8.660;2023-03-13T11:23:29;15.70;99.90
4910;DHT22;2470;49.868;8.660;2023-03-13T11:26:23;15.80;99.90
4910;DHT22;2470;49.868;8.660;2023-03-13T11:29:18;15.90;99.90
4910;DHT22;2470;49.868;8.660;2023-03-13T11:31:50;16.20;99.90
4910;DHT22;2470;49.868;8.660;2023-03-13T11:34:29;16.30;99.90
4910;DHT22;2470;49.868;8.660;2023-03-13T11:37:10;16.20;99.90
4910;DHT22;2470;49.868;8.660;2023-03-13T11:42:37;16.20;99.90
4910;DHT22;2470;49.868;8.660;2023-03-13T11:48:10;16.20;99.90
4910;DHT22;2470;49.868;8.660;2023-03-13T11:56:21;16.40;99.90
4910;DHT22;2470;49.868;8.660;2023-03-13T11:59:12;16.40;99.90
4910;DHT22;2470;49.868;8.660;2023-03-13T12:01:50;16.40;99.90
4910;DHT22;2470;49.868;8.660;2023-03-13T12:04:29;16.30;99.90
4910;DHT22;2470;49.868;8.660;2023-03-13T12:07:47;16.30;99.90
4910;DHT22;2470;49.868;8.660;2023-03-13T12:09:58;16.30;99.90
4910;DHT22;2470;49.868;8.660;2023-03-13T12:15:04;16.40;99.90
4910;DHT22;2470;49.868;8.660;2023-03-13T12:17:42;16.40;99.90
4910;DHT22;2470;49.868;8.660;2023-03-13T12:20:24;16.40;99.90
4910;DHT22;2470;49.868;8.660;2023-03-13T12:25:30;16.60;99.90
4910;DHT22;2470;49.868;8.660;2023-03-13T12:28:10;16.90;99.90
4910;DHT22;2470;49.868;8.660;2023-03-13T12:30:59;17.20;99.90
4910;DHT22;2470;49.868;8.660;2023-03-13T12:33:39;17.70;99.90
4910;DHT22;2470;49.868;8.660;2023-03-13T12:36:13;18.20;99.90
4910;DHT22;2470;49.868;8.660;2023-03-13T12:39:09;18.60;99.90
4910;DHT22;2470;49.868;8.660;2023-03-13T12:41:46;18.80;99.90
4910;DHT22;2470;49.868;8.660;2023-03-13T12:44:22;18.60;99.90
4910;DHT22;2470;49.868;8.660;2023-03-13T12:47:09;18.50;99.90
4910;DHT22;2470;49.868;8.660;2023-03-13T12:52:35;18.10;99.90
4910;DHT22;2470;49.868;8.660;2023-03-13T12:55:32;17.90;99.90
4910;DHT22;2470;49.868;8.660;2023-03-13T12:58:10;17.90;99.90
4910;DHT22;2470;49.868;8.660;2023-03-13T13:00:40;17.70;99.90
4910;DHT22;2470;49.868;8.660;2023-03-13T13:06:03;17.80;99.90
4910;DHT22;2470;49.868;8.660;2023-03-13T13:08:50;18.10;99.90
4910;DHT22;2470;49.868;8.660;2023-03-13T13:16:49;18.10;99.90
4910;DHT22;2470;49.868;8.660;2023-03-13T13:24:59;17.90;99.90
4910;DHT22;2470;49.868;8.660;2023-03-13T13:27:45;17.80;99.90
4910;DHT22;2470;49.868;8.660;2023-03-13T13:32:47;18.80;99.90
4910;DHT22;2470;49.868;8.660;2023-03-13T13:35:30;21.80;99.90
4910;DHT22;2470;49.868;8.660;2023-03-13T13:38:29;24.90;99.90
4910;DHT22;2470;49.868;8.660;2023-03-13T13:43:38;25.90;95.20
4910;DHT22;2470;49.868;8.660;2023-03-13T13:48:38;29.90;86.80
4910;DHT22;2470;49.868;8.660;2023-03-13T13:53:55;31.10;72.10
4910;DHT22;2470;49.868;8.660;2023-03-13T14:10:03;26.70;74.10
4910;DHT22;2470;49.868;8.660;2023-03-13T14:12:37;26.10;74.90
4910;DHT22;2470;49.868;8.660;2023-03-13T14:18:10;26.30;76.60
4910;DHT22;2470;49.868;8.660;2023-03-13T14:21:01;27.40;75.50
4910;DHT22;2470;49.868;8.660;2023-03-13T14:23:37;29.10;71.50
4910;DHT22;2470;49.868;8.660;2023-03-13T14:26:29;28.10;69.00
4910;DHT22;2470;49.868;8.660;2023-03-13T14:29:00;26.50;72.90
4910;DHT22;2470;49.868;8.660;2023-03-13T14:31:37;26.50;74.00
4910;DHT22;2470;49.868;8.660;2023-03-13T14:34:08;27.30;73.00
4910;DHT22;2470;49.868;8.660;2023-03-13T14:36:50;28.00;70.70
4910;DHT22;2470;49.868;8.660;2023-03-13T14:39:19;29.10;69.60
4910;DHT22;2470;49.868;8.660;2023-03-13T14:41:47;29.20;67.90
4910;DHT22;2470;49.868;8.660;2023-03-13T14:44:24;28.50;68.70
4910;DHT22;2470;49.868;8.660;2023-03-13T14:47:08;28.60;69.40
4910;DHT22;2470;49.868;8.660;2023-03-13T14:49:38;29.20;67.80
4910;DHT22;2470;49.868;8.660;2023-03-13T14:52:06;29.60;66.70
4910;DHT22;2470;49.868;8.660;2023-03-13T14:54:52;28.90;66.70
4910;DHT22;2470;49.868;8.660;2023-03-13T14:57:23;28.20;68.10
4910;DHT22;2470;49.868;8.660;2023-03-13T14:59:50;27.50;68.30
4910;DHT22;2470;49.868;8.660;2023-03-13T15:02:27;26.60;70.40
4910;DHT22;2470;49.868;8.660;2023-03-13T15:05:03;25.60;71.20
4910;DHT22;2470;49.868;8.660;2023-03-13T15:07:40;24.10;74.80
4910;DHT22;2470;49.868;8.660;2023-03-13T15:10:31;22.80;78.30
4910;DHT22;2470;49.868;8.660;2023-03-13T15:12:57;21.80;81.10
4910;DHT22;2470;49.868;8.660;2023-03-13T15:15:23;21.20;83.70
4910;DHT22;2470;49.868;8.660;2023-03-13T15:17:49;20.70;85.90
4910;DHT22;2470;49.868;8.660;2023-03-13T15:20:15;20.40;87.50
4910;DHT22;2470;49.868;8.660;2023-03-13T15:22:43;20.20;89.00
4910;DHT22;2470;49.868;8.660;2023-03-13T15:25:23;20.00;90.20
4910;DHT22;2470;49.868;8.660;2023-03-13T15:27:49;19.80;90.60
4910;DHT22;2470;49.868;8.660;2023-03-13T15:30:17;19.60;91.10
4910;DHT22;2470;49.868;8.660;2023-03-13T15:32:43;19.40;91.70
4910;DHT22;2470;49.868;8.660;2023-03-13T15:35:31;19.30;92.30
4910;DHT22;2470;49.868;8.660;2023-03-13T15:38:00;19.20;92.90
4910;DHT22;2470;49.868;8.660;2023-03-13T15:40:26;19.10;93.40
4910;DHT22;2470;49.868;8.660;2023-03-13T15:42:53;19.00;94.00
4910;DHT22;2470;49.868;8.660;2023-03-13T15:45:19;18.90;94.70
4910;DHT22;2470;49.868;8.660;2023-03-13T15:47:45;18.60;94.90
4910;DHT22;2470;49.868;8.660;2023-03-13T15:50:14;17.00;99.90
4910;DHT22;2470;49.868;8.660;2023-03-13T15:52:41;14.30;99.90
4910;DHT22;2470;49.868;8.660;2023-03-13T15:55:12;11.00;99.90
4910;DHT22;2470;49.868;8.660;2023-03-13T15:57:41;10.10;99.90
4910;DHT22;2470;49.868;8.660;2023-03-13T16:02:44;10.20;99.90
4910;DHT22;2470;49.868;8.660;2023-03-13T16:05:10;10.30;99.90
4910;DHT22;2470;49.868;8.660;2023-03-13T16:07:35;10.50;99.90
4910;DHT22;2470;49.868;8.660;2023-03-13T16:10:01;10.70;99.90
4910;DHT22;2470;49.868;8.660;2023-03-13T16:12:27;10.80;99.90
4910;DHT22;2470;49.868;8.660;2023-03-13T16:14:52;11.00;99.90
4910;DHT22;2470;49.868;8.660;2023-03-13T16:17:19;11.20;99.90
4910;DHT22;2470;49.868;8.660;2023-03-13T16:19:46;11.40;99.90
4910;DHT22;2470;49.868;8.660;2023-03-13T16:22:12;11.50;99.90
4910;DHT22;2470;49.868;8.660;2023-03-13T16:24:38;11.60;99.90
4910;DHT22;2470;49.868;8.660;2023-03-13T16:27:13;11.80;99.90
4910;DHT22;2470;49.868;8.660;2023-03-13T16:29:38;11.90;99.90
4910;DHT22;2470;49.868;8.660;2023-03-13T16:32:04;12.00;99.90
4910;DHT22;2470;49.868;8.660;2023-03-13T16:34:29;12.00;99.90
4910;DHT22;2470;49.868;8.660;2023-03-13T16:36:55;12.00;99.90
4910;DHT22;2470;49.868;8.660;2023-03-13T16:39:20;12.10;99.90
4910;DHT22;2470;49.868;8.660;2023-03-13T16:41:46;12.10;99.90
4910;DHT22;2470;49.868;8.660;2023-03-13T16:44:11;12.10;99.90
4910;DHT22;2470;49.868;8.660;2023-03-13T16:46:39;12.10;99.90
4910;DHT22;2470;49.868;8.660;2023-03-13T16:49:06;12.10;99.90
4910;DHT22;2470;49.868;8.660;2023-03-13T16:51:32;12.10;99.90
4910;DHT22;2470;49.868;8.660;2023-03-13T16:53:58;12.20;99.90
4910;DHT22;2470;49.868;8.660;2023-03-13T16:56:26;12.20;99.90
4910;DHT22;2470;49.868;8.660;2023-03-13T16:58:53;12.20;99.90
4910;DHT22;2470;49.868;8.660;2023-03-13T17:01:20;12.20;99.90
4910;DHT22;2470;49.868;8.660;2023-03-13T17:03:46;12.30;99.90
4910;DHT22;2470;49.868;8.660;2023-03-13T17:06:20;12.40;99.90
4910;DHT22;2470;49.868;8.660;2023-03-13T17:08:46;12.40;99.90
4910;DHT22;2470;49.868;8.660;2023-03-13T17:11:13;12.40;99.90
4910;DHT22;2470;49.868;8.660;2023-03-13T17:13:43;12.50;99.90
4910;DHT22;2470;49.868;8.660;2023-03-13T17:16:30;12.50;99.90
4910;DHT22;2470;49.868;8.660;2023-03-13T17:18:57;12.50;99.90
4910;DHT22;2470;49.868;8.660;2023-03-13T17:21:25;12.50;99.90
4910;DHT22;2470;49.868;8.660;2023-03-13T17:23:51;12.50;99.90
4910;DHT22;2470;49.868;8.660;2023-03-13T17:26:23;12.60;99.90
4910;DHT22;2470;49.868;8.660;2023-03-13T17:28:52;12.60;99.90